Date,TemperatureHighF,TemperatureAvgF,TemperatureLowF,DewpointHighF,DewpointAvgF,DewpointLowF,HumidityHigh,HumidityAvg,HumidityLow,PressureMaxIn,PressureMinIn,WindSpeedMaxMPH,WindSpeedAvgMPH,GustSpeedMaxMPH,PrecipitationSumIn
2013-3-1,41.3,36.1,33.3,30.0,22.0,-99.9,76,62,48,29.89,29.72,13,-26,20,0.00
2013-3-2,33.2,31.0,28.5,22.0,19.4,17.0,68,63,52,29.89,29.82,14,7,22,0.00
2013-3-3,35.2,30.8,27.6,21.0,18.2,16.0,77,60,49,29.92,29.81,19,8,26,0.00
2013-3-4,37.8,31.3,25.9,18.0,15.4,12.0,63,53,42,30.03,29.92,20,8,27,0.00
2013-3-5,48.4,36.0,23.1,25.0,18.3,13.0,77,51,24,30.07,29.81,11,2,17,0.00
2013-3-6,40.3,35.6,31.8,33.0,30.8,25.0,94,83,59,30.02,29.70,24,6,33,0.30
2013-3-7,45.7,39.7,34.5,29.0,26.9,24.0,73,61,47,30.17,30.02,17,6,25,0.00
2013-3-8,46.2,39.8,34.0,28.0,25.4,22.0,76,58,45,30.30,30.15,29,6,29,0.00
2013-3-9,59.2,42.5,25.6,25.0,22.8,20.0,80,50,24,30.37,30.25,5,1,10,0.00
2013-3-19,53.3,45.8,37.2,26.0,17.9,5.0,52,35,15,29.93,29.72,22,10,42,0.24
2013-3-20,47.7,39.0,32.0,26.0,15.5,11.0,67,40,23,29.97,29.76,17,8,26,0.00
2013-3-21,35.1,29.6,25.9,23.0,11.3,5.0,65,47,34,29.88,29.77,16,6,28,0.00
2013-3-22,39.4,28.4,24.9,18.0,2.1,-99.9,63,45,40,30.00,29.85,17,-111,27,0.00
2013-3-23,48.7,36.1,23.6,22.0,19.7,17.0,76,54,33,30.02,29.91,17,4,22,0.00
2013-3-24,42.3,34.2,24.4,30.0,22.1,18.0,86,63,43,30.00,29.64,7,1,9,0.00
2013-3-25,36.6,33.4,31.0,33.0,31.1,30.0,94,91,85,29.70,29.53,8,1,11,0.42
2013-3-26,46.8,38.5,29.9,33.0,28.8,24.0,95,71,41,30.00,29.70,13,4,24,0.14
2013-3-27,45.5,40.3,36.2,30.0,27.0,24.0,72,60,43,30.12,30.00,25,6,34,0.00
2013-3-28,45.4,41.1,36.9,29.0,28.0,25.0,72,60,47,30.23,30.07,21,5,30,0.00
2013-3-29,52.8,44.6,36.9,31.0,27.9,25.0,70,54,34,30.25,30.14,13,3,26,0.00
2013-3-30,58.3,43.4,27.6,32.0,24.9,19.0,90,54,22,30.24,30.09,9,1,14,0.00
2013-3-31,47.3,44.8,35.6,44.0,35.3,24.0,95,72,42,30.09,29.75,15,4,21,0.20